createdAt,value
2019-02-07T00:00:28.434Z,-0.70
2019-02-07T00:03:01.434Z,-0.70
2019-02-07T00:05:34.181Z,-0.70
2019-02-07T00:08:06.942Z,-0.70
2019-02-07T00:10:40.085Z,-0.70
2019-02-07T00:13:12.540Z,-0.80
2019-02-07T00:15:45.150Z,-0.80
2019-02-07T00:18:17.909Z,-0.80
2019-02-07T00:20:52.903Z,-0.80
2019-02-07T00:23:25.308Z,-0.70
2019-02-07T00:25:57.874Z,-0.80
2019-02-07T00:28:30.329Z,-0.90
2019-02-07T00:31:02.908Z,-0.90
2019-02-07T00:33:35.484Z,-0.90
2019-02-07T00:36:08.364Z,-1.00
2019-02-07T00:38:41.189Z,-1.10
2019-02-07T00:41:13.996Z,-1.10
2019-02-07T00:43:46.701Z,-1.10
2019-02-07T00:46:19.253Z,-1.00
2019-02-07T00:48:51.992Z,-1.10
2019-02-07T00:51:24.799Z,-1.10
2019-02-07T00:53:57.604Z,-1.10
2019-02-07T00:56:30.482Z,-1.20
2019-02-07T00:59:03.409Z,-1.20
2019-02-07T01:01:36.015Z,-1.20
2019-02-07T01:04:08.806Z,-1.10
2019-02-07T01:06:41.644Z,-1.00
2019-02-07T01:09:14.710Z,-1.00
2019-02-07T01:11:47.714Z,-1.00
2019-02-07T01:14:20.231Z,-1.00
2019-02-07T01:16:53.166Z,-1.00
2019-02-07T01:19:25.988Z,-0.90
2019-02-07T01:21:58.822Z,-0.90
2019-02-07T01:24:31.235Z,-0.90
2019-02-07T01:27:03.799Z,-0.90
2019-02-07T01:29:36.411Z,-0.90
2019-02-07T01:32:09.638Z,-1.00
2019-02-07T01:34:42.336Z,-1.00
2019-02-07T01:37:15.211Z,-1.10
2019-02-07T01:39:47.904Z,-1.10
2019-02-07T01:42:20.676Z,-1.30
2019-02-07T01:44:53.681Z,-1.30
2019-02-07T01:47:26.374Z,-1.20
2019-02-07T01:49:58.980Z,-1.30
2019-02-07T01:52:31.668Z,-1.30
2019-02-07T01:55:04.598Z,-1.20
2019-02-07T01:57:37.221Z,-1.20
2019-02-07T02:00:13.379Z,-1.30
2019-02-07T02:02:46.150Z,-1.40
2019-02-07T02:05:19.711Z,-1.30
2019-02-07T02:07:52.945Z,-1.30
2019-02-07T02:10:27.821Z,-1.30
2019-02-07T02:13:00.422Z,-1.30
2019-02-07T02:15:33.124Z,-1.40
2019-02-07T02:18:06.008Z,-1.50
2019-02-07T02:20:38.570Z,-1.60
2019-02-07T02:23:11.140Z,-1.60
2019-02-07T02:25:43.844Z,-1.70
2019-02-07T02:28:16.444Z,-1.60
2019-02-07T02:30:49.262Z,-1.50
2019-02-07T02:33:22.102Z,-1.60
2019-02-07T02:35:54.650Z,-1.50
2019-02-07T02:38:27.337Z,-1.50
2019-02-07T02:41:00.116Z,-1.40
2019-02-07T02:43:32.712Z,-1.40
2019-02-07T02:46:05.528Z,-1.40
2019-02-07T02:48:38.979Z,-1.50
2019-02-07T02:51:11.552Z,-1.50
2019-02-07T02:53:44.349Z,-1.50
2019-02-07T02:56:16.862Z,-1.60
2019-02-07T02:58:49.437Z,-1.60
2019-02-07T03:01:36.470Z,-1.70
2019-02-07T03:04:31.252Z,-1.80
2019-02-07T03:07:19.970Z,-1.80
2019-02-07T03:10:24.537Z,-1.80
2019-02-07T03:13:27.144Z,-1.80
2019-02-07T03:16:17.227Z,-1.80
2019-02-07T03:19:01.518Z,-1.80
2019-02-07T03:21:58.492Z,-1.80
2019-02-07T03:24:49.977Z,-1.90
2019-02-07T03:27:41.428Z,-1.90
2019-02-07T03:30:48.666Z,-1.80
2019-02-07T03:33:55.128Z,-1.80
2019-02-07T03:36:37.169Z,-1.80
2019-02-07T03:39:22.710Z,-1.80
2019-02-07T03:42:08.777Z,-1.80
2019-02-07T03:44:59.162Z,-1.90
2019-02-07T03:47:57.016Z,-2.00
2019-02-07T03:50:54.440Z,-2.00
2019-02-07T03:53:52.564Z,-2.00
2019-02-07T03:56:33.506Z,-1.90
2019-02-07T03:59:27.941Z,-2.00
2019-02-07T04:02:34.738Z,-1.90
2019-02-07T04:05:20.456Z,-1.90
2019-02-07T04:08:22.275Z,-1.90
2019-02-07T04:11:12.516Z,-2.00
2019-02-07T04:14:16.418Z,-2.00
2019-02-07T04:17:26.135Z,-2.00
2019-02-07T04:20:20.900Z,-2.10
2019-02-07T04:23:05.219Z,-2.10
2019-02-07T04:25:56.735Z,-2.10
2019-02-07T04:28:59.831Z,-2.00
2019-02-07T04:31:43.543Z,-1.90
2019-02-07T04:34:33.691Z,-2.00
2019-02-07T04:37:23.970Z,-2.00
2019-02-07T04:40:13.693Z,-2.10
2019-02-07T04:43:09.141Z,-2.10
2019-02-07T04:45:56.606Z,-2.20
2019-02-07T04:48:57.570Z,-2.20
2019-02-07T04:52:04.520Z,-2.30
2019-02-07T04:54:48.539Z,-2.40
2019-02-07T04:57:32.541Z,-2.40
2019-02-07T05:00:27.606Z,-2.40
2019-02-07T05:03:22.313Z,-2.50
2019-02-07T05:06:02.702Z,-2.60
2019-02-07T05:08:54.332Z,-2.70
2019-02-07T05:11:45.510Z,-2.60
2019-02-07T05:14:55.115Z,-2.60
2019-02-07T05:17:48.985Z,-2.40
2019-02-07T05:20:43.144Z,-2.40
2019-02-07T05:23:46.949Z,-2.60
2019-02-07T05:26:30.653Z,-2.60
2019-02-07T05:29:27.926Z,-2.60
2019-02-07T05:32:24.856Z,-2.50
2019-02-07T05:35:14.855Z,-2.50
2019-02-07T05:38:05.076Z,-2.40
2019-02-07T05:40:55.011Z,-2.40
2019-02-07T05:43:40.162Z,-2.30
2019-02-07T05:46:28.986Z,-2.20
2019-02-07T05:49:20.865Z,-2.20
2019-02-07T05:52:10.975Z,-2.10
2019-02-07T05:55:01.011Z,-2.20
2019-02-07T05:58:03.800Z,-2.20
2019-02-07T06:00:55.544Z,-2.10
2019-02-07T06:03:36.276Z,-2.00
2019-02-07T06:06:45.634Z,-2.10
2019-02-07T06:09:36.964Z,-2.00
2019-02-07T06:12:26.636Z,-1.90
2019-02-07T06:15:36.768Z,-1.80
2019-02-07T06:18:26.996Z,-1.90
2019-02-07T06:21:24.467Z,-2.00
2019-02-07T06:24:16.360Z,-2.00
2019-02-07T06:27:05.381Z,-2.00
2019-02-07T06:29:56.614Z,-2.10
2019-02-07T06:32:46.775Z,-2.10
2019-02-07T06:35:40.925Z,-2.10
2019-02-07T06:38:30.932Z,-2.00
2019-02-07T06:41:16.946Z,-2.00
2019-02-07T06:44:17.198Z,-1.90
2019-02-07T06:47:13.534Z,-2.00
2019-02-07T06:50:04.104Z,-1.90
2019-02-07T06:52:55.974Z,-2.00
2019-02-07T06:55:59.686Z,-1.90
2019-02-07T06:58:49.832Z,-1.90
2019-02-07T07:01:46.668Z,-1.80
2019-02-07T07:04:56.177Z,-1.70
2019-02-07T07:07:56.388Z,-1.70
2019-02-07T07:10:50.699Z,-1.80
2019-02-07T07:13:40.873Z,-1.70
2019-02-07T07:16:47.471Z,-1.70
2019-02-07T07:19:37.272Z,-1.70
2019-02-07T07:22:28.716Z,-1.50
2019-02-07T07:25:11.065Z,-1.40
2019-02-07T07:28:02.591Z,-1.40
2019-02-07T07:31:01.465Z,-1.40
2019-02-07T07:34:07.712Z,-1.30
2019-02-07T07:36:59.440Z,-1.40
2019-02-07T07:39:56.934Z,-1.40
2019-02-07T07:42:47.209Z,-1.40
2019-02-07T07:45:42.138Z,-1.40
2019-02-07T07:48:33.369Z,-1.30
2019-02-07T07:51:37.074Z,-1.40
2019-02-07T07:54:27.316Z,-1.40
2019-02-07T07:57:18.745Z,-1.30
2019-02-07T08:00:05.699Z,-1.30
2019-02-07T08:02:59.823Z,-1.40
2019-02-07T08:05:49.434Z,-1.40
2019-02-07T08:08:34.459Z,-1.40
2019-02-07T08:11:26.964Z,-1.40
2019-02-07T08:14:27.722Z,-1.20
2019-02-07T08:17:17.827Z,-1.30
2019-02-07T08:20:04.611Z,-1.30
2019-02-07T08:22:54.943Z,-1.30
2019-02-07T08:25:55.683Z,-1.40
2019-02-07T08:28:53.060Z,-1.40
2019-02-07T08:31:43.285Z,-1.40
2019-02-07T08:34:36.193Z,-1.30
2019-02-07T08:37:36.701Z,-1.40
2019-02-07T08:40:28.992Z,-1.30
2019-02-07T08:43:26.422Z,-1.20
2019-02-07T08:46:32.730Z,-1.20
2019-02-07T08:49:23.298Z,-1.10
2019-02-07T08:52:07.507Z,-1.00
2019-02-07T08:55:11.121Z,-1.00
2019-02-07T08:58:14.728Z,-1.00
2019-02-07T09:01:06.159Z,-0.90
2019-02-07T09:03:56.371Z,-0.80
2019-02-07T09:06:53.737Z,-0.90
2019-02-07T09:09:48.379Z,-1.00
2019-02-07T09:12:39.357Z,-1.00
2019-02-07T09:15:34.022Z,-1.10
2019-02-07T09:18:34.247Z,-1.00
2019-02-07T09:21:23.144Z,-1.00
2019-02-07T09:24:17.460Z,-0.90
2019-02-07T09:27:24.271Z,-0.90
2019-02-07T09:30:14.966Z,-0.90
2019-02-07T09:33:12.684Z,-0.90
2019-02-07T09:36:05.383Z,-0.90
2019-02-07T09:38:54.830Z,-0.80
2019-02-07T09:41:45.943Z,-0.70
2019-02-07T09:44:45.012Z,-0.70
2019-02-07T09:47:36.183Z,-0.60
2019-02-07T09:50:28.435Z,-0.60
2019-02-07T09:53:06.558Z,-0.70
2019-02-07T09:55:56.531Z,-0.50
2019-02-07T09:59:06.041Z,-0.50
2019-02-07T10:02:03.402Z,-0.30
2019-02-07T10:04:43.381Z,-0.30
2019-02-07T10:07:40.746Z,-0.30
2019-02-07T10:10:35.442Z,-0.10
2019-02-07T10:13:20.536Z,-0.10
2019-02-07T10:16:24.168Z,0.10
2019-02-07T10:19:10.952Z,0.20
2019-02-07T10:22:04.934Z,0.30
2019-02-07T10:24:52.707Z,0.50
2019-02-07T10:27:42.930Z,0.60
2019-02-07T10:30:38.231Z,0.70
2019-02-07T10:33:41.998Z,0.90
2019-02-07T10:36:52.383Z,1.50
2019-02-07T10:39:38.214Z,2.00
2019-02-07T10:42:35.684Z,2.20
2019-02-07T10:45:29.293Z,2.40
2019-02-07T10:48:20.699Z,2.60
2019-02-07T10:51:20.847Z,2.60
2019-02-07T10:54:15.462Z,2.70
2019-02-07T10:57:05.929Z,2.70
2019-02-07T10:59:57.180Z,2.90
2019-02-07T11:03:00.670Z,3.10
2019-02-07T11:05:50.616Z,3.60
2019-02-07T11:08:43.243Z,4.20
2019-02-07T11:11:45.909Z,4.50
2019-02-07T11:14:37.803Z,4.70
2019-02-07T11:17:32.002Z,4.90
2019-02-07T11:20:42.178Z,5.10
2019-02-07T11:23:42.306Z,5.00
2019-02-07T11:26:39.417Z,4.80
2019-02-07T11:29:29.622Z,4.50
2019-02-07T11:32:15.279Z,4.30
2019-02-07T11:35:23.826Z,4.10
2019-02-07T11:38:14.077Z,4.20
2019-02-07T11:41:20.612Z,4.40
2019-02-07T11:44:08.346Z,4.40
2019-02-07T11:47:05.304Z,4.40
2019-02-07T11:49:53.023Z,4.60
2019-02-07T11:52:50.193Z,4.60
2019-02-07T11:55:40.771Z,4.40
2019-02-07T11:58:35.736Z,4.50
2019-02-07T12:01:36.803Z,4.60
2019-02-07T12:04:20.449Z,4.70
2019-02-07T12:07:11.781Z,4.80
2019-02-07T12:10:02.893Z,4.90
2019-02-07T12:13:04.624Z,5.00
2019-02-07T12:15:53.857Z,5.00
2019-02-07T12:18:44.768Z,5.00
2019-02-07T12:21:36.480Z,5.10
2019-02-07T12:24:26.778Z,5.10
2019-02-07T12:27:23.175Z,5.10
2019-02-07T12:30:18.637Z,5.10
2019-02-07T12:33:28.090Z,5.20
2019-02-07T12:36:19.389Z,5.30
2019-02-07T12:38:58.468Z,5.10
2019-02-07T12:42:08.035Z,5.10
2019-02-07T12:44:52.480Z,5.10
2019-02-07T12:47:44.549Z,5.00
2019-02-07T12:50:48.112Z,5.00
2019-02-07T12:53:38.932Z,4.90
2019-02-07T12:56:24.384Z,5.10
2019-02-07T12:59:24.854Z,5.10
2019-02-07T13:02:25.553Z,5.10
2019-02-07T13:05:15.263Z,5.20
2019-02-07T13:08:15.599Z,5.20
2019-02-07T13:11:05.863Z,5.30
2019-02-07T13:13:57.383Z,5.10
2019-02-07T13:16:54.127Z,5.00
2019-02-07T13:19:51.169Z,5.10
2019-02-07T13:22:40.871Z,5.00
2019-02-07T13:25:38.540Z,5.00
2019-02-07T13:28:48.050Z,5.00
2019-02-07T13:31:38.242Z,5.10
2019-02-07T13:34:41.249Z,5.10
2019-02-07T13:37:50.690Z,5.10
2019-02-07T13:40:35.875Z,5.10
2019-02-07T13:43:27.491Z,5.10
2019-02-07T13:46:21.606Z,5.10
2019-02-07T13:49:15.835Z,5.10
2019-02-07T13:52:04.374Z,5.10
2019-02-07T13:54:56.066Z,5.10
2019-02-07T13:57:48.682Z,5.20
2019-02-07T14:00:43.000Z,5.10
2019-02-07T14:03:47.222Z,5.10
2019-02-07T14:06:49.005Z,5.10
2019-02-07T14:09:31.750Z,5.20
2019-02-07T14:12:15.297Z,5.10
2019-02-07T14:15:09.286Z,5.20
2019-02-07T14:18:13.007Z,5.20
2019-02-07T14:21:04.465Z,5.10
2019-02-07T14:24:07.874Z,5.10
2019-02-07T14:27:17.721Z,5.00
2019-02-07T14:30:03.106Z,5.10
2019-02-07T14:32:53.101Z,5.10
2019-02-07T14:35:43.198Z,5.00
2019-02-07T14:38:33.476Z,5.00
2019-02-07T14:41:34.148Z,5.00
2019-02-07T14:44:31.495Z,5.00
2019-02-07T14:47:03.940Z,5.00
2019-02-07T14:49:36.374Z,5.00
2019-02-07T14:52:10.423Z,5.00
2019-02-07T14:54:42.857Z,5.00
2019-02-07T14:57:15.864Z,5.00
2019-02-07T14:59:48.316Z,5.00
2019-02-07T15:02:21.657Z,5.00
2019-02-07T15:04:54.164Z,5.00
2019-02-07T15:07:28.335Z,5.00
2019-02-07T15:10:00.764Z,5.00
2019-02-07T15:12:33.079Z,5.00
2019-02-07T15:15:06.582Z,4.90
2019-02-07T15:17:38.959Z,4.90
2019-02-07T15:20:12.112Z,4.90
2019-02-07T15:22:44.727Z,4.90
2019-02-07T15:25:17.569Z,4.80
2019-02-07T15:27:50.220Z,4.80
2019-02-07T15:30:41.943Z,4.80
2019-02-07T15:33:14.352Z,4.70
2019-02-07T15:35:51.217Z,4.70
2019-02-07T15:38:23.630Z,4.70
2019-02-07T15:40:56.664Z,4.60
2019-02-07T15:43:29.750Z,4.50
2019-02-07T15:46:02.837Z,4.40
2019-02-07T15:48:35.462Z,4.30
2019-02-07T15:51:08.816Z,4.20
2019-02-07T15:53:41.196Z,4.10
2019-02-07T15:56:13.795Z,4.10
2019-02-07T15:59:05.575Z,4.00
2019-02-07T16:01:45.680Z,3.90
2019-02-07T16:04:25.194Z,3.90
2019-02-07T16:06:57.601Z,3.80
2019-02-07T16:09:30.132Z,3.80
2019-02-07T16:12:02.522Z,3.70
2019-02-07T16:14:35.332Z,3.70
2019-02-07T16:17:08.140Z,3.60
2019-02-07T16:19:40.719Z,3.50
2019-02-07T16:22:13.499Z,3.50
2019-02-07T16:24:46.065Z,3.50
2019-02-07T16:27:18.653Z,3.50
2019-02-07T16:29:51.014Z,3.40
2019-02-07T16:32:23.918Z,3.40
2019-02-07T16:34:56.835Z,3.30
2019-02-07T16:37:29.815Z,3.30
2019-02-07T16:40:02.838Z,3.30
2019-02-07T16:42:35.242Z,3.30
2019-02-07T16:45:12.670Z,3.30
2019-02-07T16:47:45.524Z,3.20
2019-02-07T16:50:21.032Z,3.20
2019-02-07T16:52:53.650Z,3.20
2019-02-07T16:55:26.763Z,3.20
2019-02-07T16:57:59.301Z,3.10
2019-02-07T17:00:32.414Z,3.10
2019-02-07T17:03:05.518Z,3.10
2019-02-07T17:05:38.555Z,3.00
2019-02-07T17:08:11.299Z,3.00
2019-02-07T17:10:43.811Z,3.00
2019-02-07T17:13:16.500Z,2.90
2019-02-07T17:15:49.498Z,2.90
2019-02-07T17:18:22.479Z,2.90
2019-02-07T17:20:55.473Z,3.10
2019-02-07T17:23:39.175Z,3.20
2019-02-07T17:26:13.547Z,3.10
2019-02-07T17:28:46.119Z,3.00
2019-02-07T17:31:18.698Z,2.90
2019-02-07T17:33:51.286Z,2.80
2019-02-07T17:36:23.891Z,2.80
2019-02-07T17:38:56.281Z,2.80
2019-02-07T17:41:28.701Z,2.80
2019-02-07T17:44:02.670Z,2.70
2019-02-07T17:46:35.739Z,2.70
2019-02-07T17:49:08.525Z,2.60
2019-02-07T17:51:40.949Z,2.60
2019-02-07T17:54:18.961Z,2.60
2019-02-07T17:56:47.855Z,2.50
2019-02-07T17:59:20.540Z,2.50
2019-02-07T18:01:53.039Z,2.50
2019-02-07T18:04:25.604Z,2.40
2019-02-07T18:06:58.356Z,2.40
2019-02-07T18:09:32.355Z,2.40
2019-02-07T18:12:05.064Z,2.40
2019-02-07T18:14:37.982Z,2.40
2019-02-07T18:17:10.994Z,2.40
2019-02-07T18:19:43.904Z,2.40
2019-02-07T18:22:16.619Z,2.40
2019-02-07T18:24:49.292Z,2.50
2019-02-07T18:27:22.246Z,2.50
2019-02-07T18:29:54.915Z,2.40
2019-02-07T18:32:27.568Z,2.40
2019-02-07T18:35:00.339Z,2.30
2019-02-07T18:37:32.859Z,2.30
2019-02-07T18:40:06.911Z,2.30
2019-02-07T18:42:39.628Z,2.30
2019-02-07T18:45:13.472Z,2.30
2019-02-07T18:47:47.915Z,2.30
2019-02-07T18:50:28.568Z,2.30
2019-02-07T18:53:01.309Z,2.20
2019-02-07T18:55:34.427Z,2.30
2019-02-07T18:58:07.597Z,2.30
2019-02-07T19:00:40.257Z,2.20
2019-02-07T19:03:13.085Z,2.20
2019-02-07T19:05:45.925Z,2.20
2019-02-07T19:08:18.241Z,2.20
2019-02-07T19:10:51.036Z,2.10
2019-02-07T19:13:34.712Z,2.10
2019-02-07T19:16:18.986Z,2.10
2019-02-07T19:18:51.650Z,2.10
2019-02-07T19:21:24.117Z,2.10
2019-02-07T19:23:56.645Z,2.00
2019-02-07T19:26:29.304Z,1.90
2019-02-07T19:29:02.007Z,2.10
2019-02-07T19:31:34.841Z,2.30
2019-02-07T19:34:07.825Z,2.20
2019-02-07T19:36:40.563Z,2.00
2019-02-07T19:39:13.509Z,2.00
2019-02-07T19:41:46.425Z,2.00
2019-02-07T19:44:18.988Z,1.90
2019-02-07T19:46:51.348Z,1.90
2019-02-07T19:49:23.832Z,1.90
2019-02-07T19:52:07.729Z,1.80
2019-02-07T19:54:30.943Z,1.80
2019-02-07T19:57:03.524Z,1.80
2019-02-07T19:59:36.263Z,1.90
2019-02-07T20:02:08.949Z,1.90
2019-02-07T20:04:41.739Z,1.90
2019-02-07T20:07:14.866Z,1.90
2019-02-07T20:09:47.717Z,1.90
2019-02-07T20:12:20.350Z,1.90
2019-02-07T20:14:52.775Z,1.80
2019-02-07T20:17:25.307Z,1.80
2019-02-07T20:19:58.245Z,1.80
2019-02-07T20:22:30.695Z,1.80
2019-02-07T20:25:03.218Z,1.90
2019-02-07T20:27:35.788Z,1.90
2019-02-07T20:30:28.218Z,2.00
2019-02-07T20:33:01.019Z,1.90
2019-02-07T20:35:33.516Z,1.80
2019-02-07T20:38:07.197Z,1.80
2019-02-07T20:40:40.513Z,1.80
2019-02-07T20:43:13.242Z,1.80
2019-02-07T20:45:45.966Z,1.80
2019-02-07T20:48:18.609Z,1.80
2019-02-07T20:50:51.310Z,1.80
2019-02-07T20:53:23.684Z,1.80
2019-02-07T20:55:56.280Z,1.80
2019-02-07T20:58:28.904Z,1.70
2019-02-07T21:01:01.556Z,1.80
2019-02-07T21:03:34.650Z,1.70
2019-02-07T21:06:07.476Z,1.70
2019-02-07T21:08:40.290Z,1.60
2019-02-07T21:11:13.060Z,1.60
2019-02-07T21:13:45.777Z,1.70
2019-02-07T21:16:18.847Z,1.70
2019-02-07T21:18:51.766Z,1.70
2019-02-07T21:21:24.292Z,1.70
2019-02-07T21:23:57.670Z,1.60
2019-02-07T21:26:30.230Z,1.70
2019-02-07T21:29:02.696Z,1.70
2019-02-07T21:31:35.137Z,1.70
2019-02-07T21:34:07.849Z,1.70
2019-02-07T21:36:40.429Z,1.70
2019-02-07T21:39:13.842Z,1.60
2019-02-07T21:41:46.618Z,1.70
2019-02-07T21:44:19.075Z,2.00
2019-02-07T21:46:51.737Z,2.30
2019-02-07T21:49:24.208Z,2.40
2019-02-07T21:51:56.836Z,2.50
2019-02-07T21:54:29.189Z,2.50
2019-02-07T21:57:02.756Z,2.30
2019-02-07T21:59:35.209Z,2.00
2019-02-07T22:02:07.894Z,1.80
2019-02-07T22:04:40.411Z,1.70
2019-02-07T22:07:13.105Z,1.60
2019-02-07T22:09:46.044Z,1.60
2019-02-07T22:12:18.429Z,1.50
2019-02-07T22:14:50.945Z,1.60
2019-02-07T22:17:23.555Z,1.50
2019-02-07T22:19:56.173Z,1.40
2019-02-07T22:22:29.257Z,1.40
2019-02-07T22:25:01.744Z,1.40
2019-02-07T22:27:34.424Z,1.40
2019-02-07T22:30:10.569Z,1.40
2019-02-07T22:32:43.321Z,1.50
2019-02-07T22:35:15.845Z,1.50
2019-02-07T22:37:48.514Z,1.40
2019-02-07T22:40:23.386Z,1.40
2019-02-07T22:42:56.471Z,1.40
2019-02-07T22:45:29.607Z,1.40
2019-02-07T22:48:02.326Z,1.30
2019-02-07T22:50:34.990Z,1.30
2019-02-07T22:53:08.884Z,1.30
2019-02-07T22:55:41.595Z,1.20
2019-02-07T22:58:14.458Z,1.20
2019-02-07T23:01:25.334Z,1.20
2019-02-07T23:04:00.806Z,1.20
2019-02-07T23:06:33.484Z,1.20
2019-02-07T23:09:10.030Z,1.20
2019-02-07T23:11:42.910Z,1.20
2019-02-07T23:14:19.194Z,1.20
2019-02-07T23:16:52.167Z,1.10
2019-02-07T23:19:25.013Z,1.20
2019-02-07T23:21:57.601Z,1.20
2019-02-07T23:24:30.299Z,1.20
2019-02-07T23:27:02.896Z,1.20
2019-02-07T23:29:37.463Z,1.20
2019-02-07T23:32:10.195Z,1.20
2019-02-07T23:34:42.825Z,1.20
2019-02-07T23:37:15.633Z,1.20
2019-02-07T23:39:48.001Z,1.20
2019-02-07T23:42:20.560Z,1.20
2019-02-07T23:44:53.208Z,1.20
2019-02-07T23:47:26.040Z,1.20
2019-02-07T23:49:58.752Z,1.30
2019-02-07T23:52:31.066Z,1.30
2019-02-07T23:55:03.735Z,1.30
2019-02-07T23:57:36.103Z,1.20
